Time;durP1;ratioP1;P1;durP2;ratioP2;P2;SDS_P1;SDS_P2;PMS_P1;PMS_P2;Temp;Humidity;BMP_temperature;BMP_pressure;BME280_temperature;BME280_humidity;BME280_pressure;Samples;Min_cycle;Max_cycle;Signal;HPM_P1;HPM_P2
2021/07/07 00:02:58;;;;;;;11.03;9.93;;;;;;;20.56;60.43;99979.94;153958;1101;103554;-72
2021/07/07 00:06:03;;;;;;;10.80;9.80;;;;;;;20.51;60.59;99977.06;153937;1101;103591;-72
2021/07/07 00:09:08;;;;;;;10.27;9.27;;;;;;;20.45;60.35;99977.98;153971;1101;103239;-72
2021/07/07 00:12:13;;;;;;;10.75;9.65;;;;;;;20.43;60.66;99972.77;153994;1101;103224;-71
2021/07/07 00:15:20;;;;;;;10.55;9.38;;;;;;;20.39;60.79;99976.98;153789;1101;103294;-72
2021/07/07 00:18:25;;;;;;;11.48;9.05;;;;;;;20.36;61.13;99972.86;153996;1101;103142;-73
2021/07/07 00:21:30;;;;;;;10.28;9.10;;;;;;;20.37;61.11;99966.37;153923;1101;103225;-73
2021/07/07 00:24:35;;;;;;;9.83;8.90;;;;;;;20.39;61.09;99975.10;153998;1096;103119;-73
2021/07/07 00:27:40;;;;;;;11.40;9.23;;;;;;;20.42;61.03;99979.27;153960;1101;103096;-73
2021/07/07 00:30:46;;;;;;;10.90;9.80;;;;;;;20.42;61.09;99975.70;153944;1096;103227;-71
2021/07/07 00:33:51;;;;;;;11.65;10.40;;;;;;;20.42;61.33;99984.69;153920;1101;103253;-72
2021/07/07 00:36:56;;;;;;;12.40;10.10;;;;;;;20.39;61.08;99985.94;153837;1096;103222;-71
2021/07/07 00:40:01;;;;;;;11.90;10.60;;;;;;;20.36;61.10;99997.25;153836;1101;103149;-71
2021/07/07 00:43:06;;;;;;;10.78;9.78;;;;;;;20.32;61.33;99985.20;153819;1101;103131;-72
2021/07/07 00:46:11;;;;;;;11.55;10.45;;;;;;;20.32;61.56;99978.93;153835;1096;103172;-72
2021/07/07 00:49:16;;;;;;;10.23;9.25;;;;;;;20.30;61.52;99981.86;153941;1096;103122;-70
2021/07/07 00:52:22;;;;;;;10.53;9.40;;;;;;;20.31;61.64;99980.82;153772;1101;103227;-70
2021/07/07 00:55:27;;;;;;;10.35;9.35;;;;;;;20.30;61.64;99979.15;153820;1096;103254;-70
2021/07/07 00:58:34;;;;;;;10.45;9.45;;;;;;;20.32;61.48;99985.20;153787;1095;103252;-70
2021/07/07 01:01:40;;;;;;;11.25;10.15;;;;;;;20.32;61.75;99985.20;153832;1101;103173;-73
2021/07/07 01:04:45;;;;;;;11.80;10.70;;;;;;;20.32;61.63;99993.33;153962;1096;103134;-71
2021/07/07 01:07:50;;;;;;;11.93;10.77;;;;;;;20.32;61.75;99984.34;153890;1101;103378;-73
2021/07/07 01:10:57;;;;;;;11.90;10.65;;;;;;;20.29;61.67;99984.81;153955;1096;103185;-72
2021/07/07 01:14:02;;;;;;;11.98;10.30;;;;;;;20.28;61.75;99983.96;153981;1101;103131;-72
2021/07/07 01:17:07;;;;;;;11.80;10.70;;;;;;;20.25;61.63;99983.61;153939;1096;103227;-73
2021/07/07 01:20:15;;;;;;;11.67;10.57;;;;;;;20.24;61.93;99982.76;153939;1101;103585;-72
2021/07/07 01:23:20;;;;;;;11.17;10.07;;;;;;;20.23;61.77;99978.41;153960;1101;103208;-72
2021/07/07 01:26:25;;;;;;;10.03;9.03;;;;;;;20.23;61.79;99978.41;153885;1101;103240;-72
2021/07/07 01:29:30;;;;;;;11.23;10.13;;;;;;;20.24;62.00;99977.34;153977;1095;103199;-72
2021/07/07 01:32:35;;;;;;;11.90;10.13;;;;;;;20.22;62.09;99978.63;153968;1101;103215;-71
2021/07/07 01:35:40;;;;;;;11.60;10.50;;;;;;;20.23;61.98;99975.70;153849;1101;103119;-71
2021/07/07 01:38:45;;;;;;;11.65;10.45;;;;;;;20.20;61.92;99971.53;153851;1096;103279;-72
2021/07/07 01:41:50;;;;;;;11.18;10.13;;;;;;;20.17;62.01;99976.59;154097;1101;103197;-72
2021/07/07 01:44:55;;;;;;;12.13;10.93;;;;;;;20.08;62.27;99978.75;153868;1101;103144;-71
2021/07/07 01:48:00;;;;;;;12.73;11.10;;;;;;;20.00;62.25;99976.33;153825;1095;103206;-72
2021/07/07 01:51:05;;;;;;;12.05;10.85;;;;;;;19.94;62.03;99977.22;153846;1096;103214;-72
2021/07/07 01:54:11;;;;;;;12.10;11.00;;;;;;;19.91;62.39;99983.89;153971;1101;103195;-72
2021/07/07 01:57:17;;;;;;;12.28;11.10;;;;;;;19.90;62.23;99979.54;153988;1101;103221;-72
2021/07/07 02:00:25;;;;;;;11.13;10.03;;;;;;;19.87;62.61;99979.15;153947;1096;103126;-72
2021/07/07 02:03:30;;;;;;;10.88;9.78;;;;;;;19.85;62.22;99984.78;153917;1101;103203;-73
2021/07/07 02:06:35;;;;;;;10.25;9.23;;;;;;;19.83;62.10;99984.17;153949;1096;103201;-73
2021/07/07 02:09:40;;;;;;;11.80;10.53;;;;;;;19.78;62.10;99979.43;153934;1096;103177;-72
2021/07/07 02:12:46;;;;;;;12.78;11.58;;;;;;;19.75;62.37;99979.86;153842;1101;103199;-72
2021/07/07 02:15:52;;;;;;;13.33;11.20;;;;;;;19.68;62.20;99989.05;154012;1095;103203;-70
2021/07/07 02:18:57;;;;;;;12.20;11.03;;;;;;;19.58;62.52;99990.35;154025;1101;103223;-72
2021/07/07 02:22:02;;;;;;;11.83;10.63;;;;;;;19.50;62.41;99998.74;153970;1101;103135;-72
2021/07/07 02:25:10;;;;;;;12.80;11.50;;;;;;;19.41;62.66;100003.56;153958;1101;103409;-71
2021/07/07 02:28:17;;;;;;;12.93;11.60;;;;;;;19.32;62.72;100007.59;153852;1101;103129;-71
2021/07/07 02:31:22;;;;;;;18.73;12.17;;;;;;;19.22;63.01;100004.52;153830;1096;103345;-69
2021/07/07 02:34:27;;;;;;;12.97;11.77;;;;;;;19.17;62.79;100007.88;153918;1094;103151;-70
2021/07/07 02:37:32;;;;;;;13.83;11.53;;;;;;;19.12;62.91;99999.56;153903;1095;103142;-72
2021/07/07 02:40:38;;;;;;;11.78;10.58;;;;;;;19.09;62.82;100004.58;153777;1096;103311;-71
2021/07/07 02:43:43;;;;;;;12.20;11.00;;;;;;;19.06;63.06;100011.25;153947;1101;103201;-71
2021/07/07 02:46:48;;;;;;;15.77;11.13;;;;;;;19.07;62.97;100010.19;153959;1096;103190;-70
2021/07/07 02:49:53;;;;;;;12.60;11.35;;;;;;;19.04;63.18;100013.34;153910;1101;103198;-72
2021/07/07 02:52:59;;;;;;;12.77;11.33;;;;;;;19.03;63.36;100019.78;153918;1101;103126;-73
2021/07/07 02:56:04;;;;;;;13.45;12.05;;;;;;;19.05;63.09;100014.16;154069;1101;103241;-73
2021/07/07 02:59:09;;;;;;;13.23;11.83;;;;;;;19.05;63.06;100020.39;153994;1101;103201;-71
2021/07/07 03:02:14;;;;;;;13.20;11.83;;;;;;;19.04;63.29;100024.16;153945;1101;103135;-73
2021/07/07 03:05:19;;;;;;;12.88;11.58;;;;;;;19.05;63.36;100020.39;153949;1096;103142;-73
2021/07/07 03:08:25;;;;;;;12.13;10.67;;;;;;;19.12;63.38;100025.80;154170;1095;103566;-74
2021/07/07 03:11:31;;;;;;;12.00;10.75;;;;;;;19.16;63.50;100030.55;153987;1096;103305;-74
2021/07/07 03:14:36;;;;;;;11.97;10.77;;;;;;;19.21;63.48;100032.63;154153;1101;103135;-74
2021/07/07 03:17:41;;;;;;;12.63;11.28;;;;;;;19.32;63.53;100029.24;153929;1096;103608;-74
2021/07/07 03:20:48;;;;;;;13.50;11.38;;;;;;;19.45;63.50;100033.73;153927;1101;103117;-74
2021/07/07 03:23:53;;;;;;;12.43;11.13;;;;;;;19.62;63.57;100031.34;153980;1101;103113;-74
2021/07/07 03:26:58;;;;;;;12.70;11.50;;;;;;;19.80;63.50;100026.06;153947;1096;103302;-73
2021/07/07 03:30:04;;;;;;;12.60;11.28;;;;;;;19.98;63.42;100027.18;154027;1101;103148;-73
2021/07/07 03:33:09;;;;;;;13.27;11.60;;;;;;;20.11;63.42;100032.48;153986;1096;103193;-74
2021/07/07 03:36:14;;;;;;;11.40;10.30;;;;;;;20.29;63.45;100034.41;153961;1096;103256;-74
2021/07/07 03:39:19;;;;;;;10.50;9.57;;;;;;;20.54;63.29;100030.84;153970;1101;103113;-74
2021/07/07 03:42:24;;;;;;;11.43;10.23;;;;;;;20.80;63.20;100029.73;154002;1101;103272;-73
2021/07/07 03:45:29;;;;;;;11.90;10.70;;;;;;;21.06;63.16;100028.61;153996;1101;103235;-75
2021/07/07 03:48:35;;;;;;;10.93;9.93;;;;;;;21.32;63.16;100027.42;154012;1096;103142;-72
2021/07/07 03:51:40;;;;;;;11.10;10.10;;;;;;;21.59;63.05;100021.66;153971;1101;103107;-74
2021/07/07 03:54:45;;;;;;;12.23;11.03;;;;;;;21.81;62.82;100024.69;153955;1096;103255;-75
2021/07/07 03:57:50;;;;;;;12.03;10.93;;;;;;;22.05;62.82;100032.87;153990;1101;103221;-75
2021/07/07 04:00:55;;;;;;;12.23;11.00;;;;;;;22.28;62.92;100024.76;154010;1101;103563;-76
2021/07/07 04:04:00;;;;;;;10.90;9.87;;;;;;;22.54;62.72;100038.96;153989;1096;103252;-75
2021/07/07 04:07:05;;;;;;;11.03;9.88;;;;;;;22.83;62.64;100044.48;153962;1101;103144;-75
2021/07/07 04:10:12;;;;;;;11.70;10.48;;;;;;;23.17;62.61;100041.94;153994;1101;103244;-75
2021/07/07 04:13:18;;;;;;;13.40;11.78;;;;;;;23.49;62.19;100040.39;153953;1101;103267;-74
2021/07/07 04:16:24;;;;;;;13.80;11.40;;;;;;;23.84;62.20;100047.58;153962;1096;103128;-75
2021/07/07 04:19:29;;;;;;;11.50;10.40;;;;;;;24.12;62.17;100037.70;153956;1096;103200;-75
2021/07/07 04:22:35;;;;;;;12.00;10.77;;;;;;;24.38;61.74;100043.55;153944;1101;103099;-74
2021/07/07 04:25:40;;;;;;;11.90;10.80;;;;;;;24.62;61.31;100041.48;153972;1101;103181;-74
2021/07/07 04:28:45;;;;;;;11.50;10.30;;;;;;;24.80;60.94;100034.90;153912;1096;103203;-74
2021/07/07 04:31:53;;;;;;;11.20;10.00;;;;;;;25.00;61.07;100037.91;153987;1101;103226;-75
2021/07/07 04:34:58;;;;;;;10.15;9.15;;;;;;;25.19;60.71;100034.83;153957;1096;103249;-75
2021/07/07 04:38:03;;;;;;;11.75;10.55;;;;;;;25.34;60.39;100039.68;153944;1101;103147;-74
2021/07/07 04:41:08;;;;;;;10.47;9.47;;;;;;;25.47;60.28;100031.08;154012;1096;103166;-75
2021/07/07 04:44:14;;;;;;;12.07;10.73;;;;;;;25.60;60.62;100035.33;153938;1096;103224;-74
2021/07/07 04:47:19;;;;;;;11.00;10.00;;;;;;;25.69;59.87;100041.95;153981;1101;103126;-75
2021/07/07 04:50:24;;;;;;;10.50;9.43;;;;;;;25.66;59.91;100042.48;153966;1101;103155;-74
2021/07/07 04:53:29;;;;;;;11.40;10.25;;;;;;;25.59;59.77;100039.94;153937;1101;103142;-75
2021/07/07 04:56:34;;;;;;;10.93;9.83;;;;;;;25.62;59.23;100049.55;153966;1096;103206;-74
2021/07/07 04:59:39;;;;;;;10.65;9.68;;;;;;;25.68;59.48;100053.97;153924;1095;103266;-74
2021/07/07 05:02:45;;;;;;;11.50;10.50;;;;;;;25.67;59.69;100063.24;154019;1095;103554;-74
2021/07/07 05:05:50;;;;;;;11.65;10.10;;;;;;;25.69;59.58;100065.72;153984;1096;103199;-75
2021/07/07 05:08:55;;;;;;;10.83;9.83;;;;;;;25.69;59.47;100060.26;153978;1096;103122;-76
2021/07/07 05:12:01;;;;;;;10.77;9.60;;;;;;;25.70;59.39;100056.45;153963;1101;103161;-76
2021/07/07 05:15:11;;;;;;;11.23;10.17;;;;;;;25.80;59.39;100053.81;153940;1101;103228;-78
2021/07/07 05:18:17;;;;;;;10.65;9.55;;;;;;;25.91;59.06;100052.02;154017;1101;103160;-79
2021/07/07 05:21:22;;;;;;;10.48;9.55;;;;;;;25.98;58.83;100052.63;153914;1096;103134;-78
2021/07/07 05:24:27;;;;;;;11.20;10.17;;;;;;;26.04;59.00;100057.89;153959;1096;103131;-75
2021/07/07 05:27:31;;;;;;;11.40;10.30;;;;;;;26.13;58.46;100055.48;153989;1101;103188;-76
2021/07/07 05:30:37;;;;;;;11.70;10.50;;;;;;;26.22;58.73;100067.60;153924;1096;103208;-76
2021/07/07 05:33:42;;;;;;;12.08;10.58;;;;;;;26.29;58.57;100061.08;153971;1094;103163;-77
2021/07/07 05:36:47;;;;;;;11.23;10.17;;;;;;;26.37;58.48;100066.90;153924;1096;103200;-76
2021/07/07 05:39:54;;;;;;;11.47;10.27;;;;;;;26.48;57.92;100067.78;153917;1096;103122;-76
2021/07/07 05:42:59;;;;;;;10.17;9.27;;;;;;;26.55;58.36;100059.36;153956;1101;103483;-75
2021/07/07 05:46:04;;;;;;;12.10;10.53;;;;;;;26.60;57.71;100062.98;153925;1101;103250;-76
2021/07/07 05:49:09;;;;;;;10.55;9.60;;;;;;;26.65;57.95;100064.91;153985;1101;103230;-76
2021/07/07 05:52:14;;;;;;;11.65;10.60;;;;;;;26.71;57.99;100066.59;153927;1096;103135;-76
2021/07/07 05:55:20;;;;;;;10.65;9.73;;;;;;;26.74;57.63;100065.25;154002;1094;103118;-77
2021/07/07 05:58:26;;;;;;;11.50;10.40;;;;;;;26.76;57.59;100063.08;153985;1096;103563;-74
2021/07/07 06:01:31;;;;;;;10.20;9.30;;;;;;;26.79;57.20;100066.11;153933;1101;103294;-75
2021/07/07 06:04:37;;;;;;;10.35;9.40;;;;;;;26.85;57.26;100066.96;153972;1101;103199;-77
2021/07/07 06:07:43;;;;;;;10.80;9.70;;;;;;;26.88;57.05;100071.89;153965;1096;103323;-76
2021/07/07 06:10:48;;;;;;;10.50;9.43;;;;;;;26.91;57.35;100062.34;153943;1101;103201;-76
2021/07/07 06:13:53;;;;;;;11.83;10.73;;;;;;;26.93;57.06;100069.19;153991;1101;103261;-77
2021/07/07 06:16:58;;;;;;;10.90;9.80;;;;;;;26.96;56.96;100063.16;153934;1096;103270;-75
2021/07/07 06:20:04;;;;;;;11.35;10.25;;;;;;;26.98;56.52;100061.00;153973;1101;103203;-76
2021/07/07 06:23:09;;;;;;;11.00;10.00;;;;;;;26.96;56.33;100065.89;153955;1101;103118;-76
2021/07/07 06:26:14;;;;;;;10.98;9.88;;;;;;;26.95;56.01;100071.66;153923;1096;103202;-76
2021/07/07 06:29:19;;;;;;;11.17;10.10;;;;;;;26.93;55.93;100063.70;153936;1101;103496;-75
2021/07/07 06:32:24;;;;;;;10.63;9.60;;;;;;;26.93;55.86;100069.19;153947;1096;103213;-77
2021/07/07 06:35:34;;;;;;;10.70;9.60;;;;;;;26.94;56.28;100064.52;153971;1101;103253;-77
2021/07/07 06:38:39;;;;;;;11.38;10.18;;;;;;;26.96;56.59;100060.41;153933;1095;103553;-77
2021/07/07 06:41:44;;;;;;;9.63;8.77;;;;;;;27.00;56.01;100072.52;153940;1101;103246;-75
2021/07/07 06:44:49;;;;;;;10.58;9.45;;;;;;;27.03;55.83;100066.48;153974;1095;103230;-76
2021/07/07 06:47:54;;;;;;;10.90;9.90;;;;;;;27.08;55.46;100075.81;153948;1101;103270;-76
2021/07/07 06:50:59;;;;;;;10.00;9.10;;;;;;;27.11;55.75;100078.03;154041;1101;103236;-76
2021/07/07 06:54:04;;;;;;;10.10;8.93;;;;;;;27.17;55.64;100071.47;153968;1101;103426;-76
2021/07/07 06:57:10;;;;;;;10.23;9.23;;;;;;;27.22;55.36;100076.98;153979;1096;103106;-76
2021/07/07 07:00:18;;;;;;;9.07;8.17;;;;;;;27.28;55.42;100081.41;154020;1096;103246;-76
2021/07/07 07:03:23;;;;;;;8.77;8.07;;;;;;;27.34;55.32;100072.11;153939;1095;103300;-76
2021/07/07 07:06:29;;;;;;;9.40;8.40;;;;;;;27.39;55.31;100072.14;154156;1101;103139;-77
2021/07/07 07:09:34;;;;;;;10.48;8.78;;;;;;;27.41;54.78;100072.69;154036;1096;103192;-76
2021/07/07 07:12:40;;;;;;;8.78;8.00;;;;;;;27.46;54.69;100076.53;153939;1101;103474;-76
2021/07/07 07:15:47;;;;;;;9.00;8.15;;;;;;;27.52;54.50;100068.07;154041;1101;103169;-76
2021/07/07 07:18:52;;;;;;;8.70;7.90;;;;;;;27.59;54.41;100076.02;153997;1101;103193;-77
2021/07/07 07:21:57;;;;;;;8.17;7.47;;;;;;;27.65;54.35;100074.94;153962;1096;103664;-77
2021/07/07 07:25:03;;;;;;;10.03;8.63;;;;;;;27.70;53.76;100077.69;154023;1101;103668;-76
2021/07/07 07:28:08;;;;;;;8.60;7.90;;;;;;;27.76;53.88;100073.86;154028;1095;103198;-77
2021/07/07 07:31:13;;;;;;;8.43;7.37;;;;;;;27.85;53.81;100073.31;154014;1095;103217;-77
2021/07/07 07:34:18;;;;;;;8.57;7.87;;;;;;;27.89;53.77;100082.67;154106;1101;103276;-77
2021/07/07 07:37:25;;;;;;;8.68;7.88;;;;;;;27.90;53.65;100084.33;153936;1095;103163;-77
2021/07/07 07:40:37;;;;;;;8.30;7.50;;;;;;;27.98;53.30;100086.52;154018;1095;103096;-77
2021/07/07 07:43:43;;;;;;;8.95;8.13;;;;;;;28.17;53.58;100093.11;153944;1101;103129;-77
2021/07/07 07:46:48;;;;;;;7.43;6.73;;;;;;;28.27;53.12;100084.05;153972;1096;103125;-76
2021/07/07 07:49:53;;;;;;;8.50;7.80;;;;;;;28.42;52.68;100088.72;153928;1101;103202;-77
2021/07/07 07:52:58;;;;;;;8.63;7.73;;;;;;;28.56;52.73;100078.86;154018;1101;103193;-77
2021/07/07 07:56:03;;;;;;;9.40;8.50;;;;;;;28.67;52.53;100084.33;154000;1101;103131;-77
2021/07/07 07:59:08;;;;;;;9.27;7.80;;;;;;;28.71;52.21;100088.16;153919;1101;103197;-77
2021/07/07 08:02:13;;;;;;;8.45;7.65;;;;;;;28.73;52.14;100078.53;153974;1101;103298;-77
2021/07/07 08:05:19;;;;;;;8.00;7.30;;;;;;;28.71;52.00;100083.48;153969;1101;103315;-77
2021/07/07 08:08:24;;;;;;;8.00;7.28;;;;;;;28.75;51.69;100081.00;153987;1096;103462;-77
2021/07/07 08:11:29;;;;;;;8.10;7.40;;;;;;;28.81;51.54;100079.07;153970;1095;103223;-77
2021/07/07 08:14:34;;;;;;;7.93;7.23;;;;;;;28.87;51.69;100083.44;153906;1101;103103;-77
2021/07/07 08:17:39;;;;;;;9.07;7.43;;;;;;;28.92;51.43;100086.18;153992;1096;103249;-77
2021/07/07 08:20:45;;;;;;;7.88;7.08;;;;;;;28.94;51.31;100089.47;153930;1096;103261;-78
2021/07/07 08:23:50;;;;;;;7.27;6.67;;;;;;;29.01;50.83;100095.50;153987;1096;103153;-77
2021/07/07 08:26:57;;;;;;;8.17;7.37;;;;;;;29.04;50.36;100088.61;153987;1096;103208;-77
2021/07/07 08:30:03;;;;;;;8.18;7.45;;;;;;;29.13;50.60;100100.70;153935;1096;103195;-77
2021/07/07 08:33:08;;;;;;;7.70;7.00;;;;;;;29.19;51.03;100096.02;153958;1096;103272;-77
2021/07/07 08:36:18;;;;;;;8.40;7.60;;;;;;;29.21;50.22;100099.30;153962;1101;103309;-77
2021/07/07 08:39:24;;;;;;;7.97;7.27;;;;;;;29.26;50.20;100100.09;154030;1101;103145;-77
2021/07/07 08:42:34;;;;;;;7.68;6.95;;;;;;;29.38;50.08;100098.95;153998;1101;103495;-77
2021/07/07 08:45:39;;;;;;;7.45;6.85;;;;;;;29.41;49.99;100114.86;153915;1101;103199;-77
2021/07/07 08:48:44;;;;;;;7.13;6.53;;;;;;;29.39;49.39;100108.83;153950;1101;103364;-77
2021/07/07 08:51:50;;;;;;;7.50;6.73;;;;;;;29.34;48.95;100105.00;153952;1101;103215;-77
2021/07/07 08:54:55;;;;;;;8.33;7.57;;;;;;;29.41;49.07;100103.87;153974;1101;103131;-76
2021/07/07 08:58:01;;;;;;;7.83;7.13;;;;;;;29.45;48.92;100104.97;153922;1096;103187;-77
2021/07/07 09:01:06;;;;;;;7.80;7.00;;;;;;;29.41;48.44;100104.71;153922;1096;103196;-76
2021/07/07 09:04:11;;;;;;;7.80;7.05;;;;;;;29.42;48.69;100106.34;154007;1095;103213;-77
2021/07/07 09:07:21;;;;;;;7.58;6.98;;;;;;;29.52;48.70;100105.47;154030;1101;103323;-77
2021/07/07 09:10:34;;;;;;;7.10;6.50;;;;;;;29.61;48.58;100102.95;154029;1101;103138;-76
2021/07/07 09:13:39;;;;;;;8.10;7.18;;;;;;;29.68;48.47;100108.97;154028;1101;103585;-77
2021/07/07 09:16:56;;;;;;;7.83;7.13;;;;;;;29.74;48.35;100105.92;153921;1096;103144;-79
2021/07/07 09:20:01;;;;;;;7.48;6.88;;;;;;;29.80;48.12;100106.72;153953;1095;103157;-77
2021/07/07 09:23:22;;;;;;;7.23;6.53;;;;;;;29.87;48.15;100106.38;153984;1101;103245;-77
2021/07/07 09:26:32;;;;;;;7.10;6.50;;;;;;;29.89;47.28;100115.17;154049;1095;103123;-77
2021/07/07 09:29:40;;;;;;;8.43;7.63;;;;;;;29.87;47.72;100095.38;153971;1101;103201;-77
2021/07/07 09:32:47;;;;;;;8.20;7.40;;;;;;;29.92;47.90;100106.36;153989;1101;103137;-77
2021/07/07 09:35:53;;;;;;;9.15;6.48;;;;;;;29.94;47.76;100104.14;154045;1101;103234;-77
2021/07/07 09:38:59;;;;;;;8.57;7.60;;;;;;;29.97;46.95;100106.33;153973;1101;103302;-77
2021/07/07 09:42:04;;;;;;;7.90;7.10;;;;;;;29.97;46.70;100106.33;154053;1101;103224;-77
2021/07/07 09:45:12;;;;;;;7.35;6.65;;;;;;;29.96;47.20;100115.67;153968;1101;103195;-77
2021/07/07 09:48:17;;;;;;;7.90;7.13;;;;;;;30.00;46.80;100110.42;153957;1096;103142;-77
2021/07/07 09:51:23;;;;;;;7.73;7.00;;;;;;;30.00;46.33;100107.68;154050;1095;103816;-77
2021/07/07 09:54:28;;;;;;;7.68;6.98;;;;;;;30.01;46.61;100107.39;154006;1101;103576;-76
2021/07/07 09:57:33;;;;;;;7.73;7.03;;;;;;;30.06;46.54;100109.28;154013;1096;103230;-77
2021/07/07 10:00:39;;;;;;;7.50;6.90;;;;;;;30.08;46.50;100110.66;153989;1096;103136;-77
2021/07/07 10:03:44;;;;;;;8.03;7.33;;;;;;;30.12;46.52;100122.73;154006;1096;103155;-76
2021/07/07 10:06:49;;;;;;;7.47;6.77;;;;;;;30.14;46.03;100111.44;154021;1101;103249;-77
2021/07/07 10:09:55;;;;;;;7.83;7.13;;;;;;;30.17;45.69;100116.35;153928;1101;103224;-77
2021/07/07 10:13:01;;;;;;;8.98;7.88;;;;;;;30.21;45.80;100108.34;153999;1101;103224;-77
2021/07/07 10:16:07;;;;;;;8.20;7.40;;;;;;;30.20;45.97;100114.94;154065;1096;103129;-77
2021/07/07 10:19:14;;;;;;;8.08;7.28;;;;;;;30.18;45.70;100107.00;154030;1096;103232;-78
2021/07/07 10:22:19;;;;;;;7.88;7.05;;;;;;;30.21;45.74;100111.91;153983;1096;103227;-77
2021/07/07 10:25:28;;;;;;;7.63;7.03;;;;;;;30.28;45.46;100108.84;153975;1096;103288;-77
2021/07/07 10:28:34;;;;;;;8.43;7.73;;;;;;;30.36;45.69;100113.75;153985;1101;103132;-77
2021/07/07 10:31:51;;;;;;;8.75;7.95;;;;;;;30.40;45.26;100120.31;154046;1095;103198;-78
2021/07/07 10:34:56;;;;;;;8.83;8.03;;;;;;;30.36;45.01;100113.75;153984;1101;103052;-77
2021/07/07 10:38:02;;;;;;;8.57;7.67;;;;;;;30.38;45.40;100114.28;153965;1094;103407;-78
2021/07/07 10:41:07;;;;;;;8.83;8.13;;;;;;;30.39;45.08;100115.09;153975;1095;103208;-78
2021/07/07 10:44:33;;;;;;;9.45;7.80;;;;;;;30.42;45.45;100129.11;153995;1101;103189;-75
2021/07/07 10:47:41;;;;;;;9.00;8.10;;;;;;;30.46;45.24;100119.16;153973;1095;103152;-76
2021/07/07 10:50:46;;;;;;;8.70;7.90;;;;;;;30.49;45.19;100117.78;153971;1096;103134;-75
2021/07/07 10:53:52;;;;;;;8.50;7.80;;;;;;;30.56;45.16;100117.42;153989;1101;103211;-76
2021/07/07 10:56:58;;;;;;;8.37;7.57;;;;;;;30.61;44.94;100120.14;154010;1101;103225;-75
2021/07/07 11:00:08;;;;;;;8.28;7.53;;;;;;;30.73;45.45;100110.35;153970;1101;103131;-76
2021/07/07 11:03:37;;;;;;;8.50;7.80;;;;;;;30.87;45.13;100112.41;154016;1096;103131;-75
2021/07/07 11:06:43;;;;;;;7.93;7.23;;;;;;;31.01;44.92;100109.84;153949;1101;103128;-75
2021/07/07 11:09:52;;;;;;;8.20;7.50;;;;;;;31.07;44.94;100108.66;154004;1101;103310;-76
2021/07/07 11:13:16;;;;;;;8.28;7.48;;;;;;;31.12;44.25;100108.58;153939;1101;103183;-75
2021/07/07 11:16:24;;;;;;;8.15;7.05;;;;;;;31.15;44.72;100104.44;153969;1101;103224;-76
2021/07/07 11:19:41;;;;;;;7.90;7.10;;;;;;;31.22;44.72;100104.91;154018;1101;103203;-76
2021/07/07 11:22:49;;;;;;;7.97;7.27;;;;;;;31.23;44.52;100107.34;154004;1101;103128;-75
2021/07/07 11:25:55;;;;;;;7.78;7.13;;;;;;;31.27;44.51;100111.14;153974;1096;103195;-76
2021/07/07 11:29:01;;;;;;;8.73;7.90;;;;;;;31.33;44.09;100100.88;153919;1096;103698;-76
2021/07/07 11:32:23;;;;;;;7.93;7.13;;;;;;;31.35;44.03;100108.86;153990;1101;103551;-76
2021/07/07 11:35:30;;;;;;;8.10;7.30;;;;;;;31.43;43.80;100100.76;153937;1094;103051;-75
2021/07/07 11:38:35;;;;;;;7.53;6.90;;;;;;;31.41;43.83;100107.66;153969;1101;103116;-76
2021/07/07 11:41:41;;;;;;;7.53;6.83;;;;;;;31.25;43.91;100107.86;153925;1101;103299;-75
2021/07/07 11:44:46;;;;;;;8.10;7.30;;;;;;;31.21;43.91;100106.00;153975;1101;103270;-75
2021/07/07 11:47:56;;;;;;;7.57;6.97;;;;;;;31.12;44.05;100100.31;153961;1101;103139;-75
2021/07/07 11:51:02;;;;;;;;;;;;;;;31.16;44.15;100104.14;154002;1094;103227;-76
2021/07/07 11:54:08;;;;;;;8.47;7.30;;;;;;;31.26;44.28;100092.17;153966;1096;103160;-75
2021/07/07 11:57:13;;;;;;;8.30;7.48;;;;;;;31.41;43.40;100104.91;153956;1095;103219;-76
2021/07/07 12:00:18;;;;;;;8.10;7.40;;;;;;;31.42;43.76;100107.38;154007;1101;103403;-75
2021/07/07 12:03:25;;;;;;;7.50;6.90;;;;;;;31.49;43.78;100099.59;153981;1101;103655;-77
2021/07/07 12:06:35;;;;;;;7.50;6.90;;;;;;;31.68;43.93;100098.77;153945;1096;103201;-75
2021/07/07 12:09:40;;;;;;;8.03;7.03;;;;;;;31.83;43.37;100100.48;153969;1096;103206;-76
2021/07/07 12:12:45;;;;;;;7.38;6.78;;;;;;;31.95;43.63;100094.51;153990;1101;103329;-76
2021/07/07 12:15:50;;;;;;;7.90;7.20;;;;;;;32.04;43.04;100107.36;153963;1101;103292;-76
2021/07/07 12:18:57;;;;;;;7.70;7.00;;;;;;;32.04;43.11;100090.80;154000;1101;103167;-77
2021/07/07 12:22:03;;;;;;;7.60;6.95;;;;;;;32.08;42.83;100089.10;154007;1096;103190;-76
2021/07/07 12:25:10;;;;;;;7.90;7.20;;;;;;;32.08;42.73;100102.91;153962;1096;103139;-75
2021/07/07 12:28:15;;;;;;;8.03;7.10;;;;;;;32.01;42.98;100101.61;154011;1101;103185;-75
2021/07/07 12:31:21;;;;;;;7.33;6.63;;;;;;;31.97;42.77;100098.63;153968;1101;103179;-76
2021/07/07 12:34:31;;;;;;;7.58;6.83;;;;;;;31.98;42.95;100091.97;153972;1101;103585;-77
2021/07/07 12:37:36;;;;;;;8.28;7.58;;;;;;;32.05;43.17;100092.45;153980;1094;103167;-76
2021/07/07 12:40:41;;;;;;;8.43;6.93;;;;;;;32.05;42.17;100108.20;153950;1101;103128;-75
2021/07/07 12:44:06;;;;;;;7.90;7.20;;;;;;;32.05;42.68;100097.16;153981;1101;103266;-75
2021/07/07 12:47:17;;;;;;;7.27;6.63;;;;;;;31.91;42.49;100110.84;153919;1101;103190;-75
2021/07/07 12:50:24;;;;;;;7.85;7.05;;;;;;;31.94;43.07;100101.16;153980;1101;103157;-76
2021/07/07 12:53:36;;;;;;;7.40;6.80;;;;;;;32.01;42.89;100096.94;153950;1095;103181;-75
2021/07/07 12:56:56;;;;;;;7.80;7.10;;;;;;;32.06;42.76;100102.35;153946;1101;103285;-76
2021/07/07 13:00:01;;;;;;;7.60;6.97;;;;;;;32.12;42.84;100103.09;153985;1101;103202;-76
2021/07/07 13:03:08;;;;;;;7.83;7.23;;;;;;;32.18;42.11;100101.07;153922;1101;103214;-74
2021/07/07 13:06:23;;;;;;;7.83;7.13;;;;;;;32.20;42.17;100107.11;154032;1101;103124;-76
2021/07/07 13:09:29;;;;;;;7.75;6.95;;;;;;;32.17;42.36;100102.20;153997;1094;103229;-76
2021/07/07 13:12:34;;;;;;;8.27;7.57;;;;;;;32.13;42.78;100103.94;153983;1095;103230;-75
2021/07/07 13:15:38;;;;;;;8.15;7.43;;;;;;;32.14;42.59;100100.84;154000;1101;103281;-74
2021/07/07 13:18:59;;;;;;;8.27;7.57;;;;;;;32.14;42.61;100100.03;153960;1101;103279;-75
2021/07/07 13:22:04;;;;;;;;;;;;;;;32.18;42.51;100103.83;154001;1096;103131;-74
2021/07/07 13:25:22;;;;;;;7.47;6.87;;;;;;;32.10;42.20;100105.34;153980;1101;103227;-74
2021/07/07 13:28:30;;;;;;;8.80;7.90;;;;;;;31.99;42.40;100101.06;153934;1096;103227;-75
2021/07/07 13:31:35;;;;;;;9.00;7.68;;;;;;;31.82;42.20;100109.90;154006;1096;103299;-75
2021/07/07 13:34:42;;;;;;;8.30;7.53;;;;;;;31.66;42.48;100112.04;153933;1096;103554;-74
2021/07/07 13:37:48;;;;;;;9.10;7.50;;;;;;;31.54;42.09;100106.97;153976;1101;103222;-75
2021/07/07 13:40:53;;;;;;;8.53;7.63;;;;;;;31.49;42.87;100105.11;153936;1095;103145;-75
2021/07/07 13:43:58;;;;;;;8.68;7.83;;;;;;;31.41;42.82;100108.51;153942;1101;103134;-76
2021/07/07 13:47:04;;;;;;;8.25;7.55;;;;;;;31.38;42.50;100111.03;153992;1096;103271;-75
2021/07/07 13:50:12;;;;;;;8.20;7.50;;;;;;;31.29;42.42;100103.43;153949;1101;103224;-75
2021/07/07 13:53:17;;;;;;;8.97;7.83;;;;;;;31.21;42.73;100101.30;154020;1101;103137;-74
2021/07/07 13:56:22;;;;;;;8.93;7.40;;;;;;;31.12;42.89;100097.55;153959;1101;103116;-74
2021/07/07 13:59:27;;;;;;;8.25;7.45;;;;;;;31.05;42.93;100097.11;153933;1101;103193;-76
2021/07/07 14:02:32;;;;;;;8.30;7.60;;;;;;;31.08;43.18;100107.53;153994;1101;103209;-75